Time;durP1;ratioP1;P1;durP2;ratioP2;P2;SDS_P1;SDS_P2;PMS_P1;PMS_P2;Temp;Humidity;BMP_temperature;BMP_pressure;BME280_temperature;BME280_humidity;BME280_pressure;Samples;Min_cycle;Max_cycle;Signal;HPM_P1;HPM_P2
2022/07/14 04:02:36;;;;;;;3.63;3.25;;;13.70;99.90;;;;;;4959492;23;20324;-68
2022/07/14 04:05:02;;;;;;;6.03;3.67;;;13.70;99.90;;;;;;4942270;28;20220;-69
2022/07/14 04:07:29;;;;;;;8.48;3.00;;;13.70;99.90;;;;;;4952415;28;20461;-68
2022/07/14 04:09:56;;;;;;;5.25;4.35;;;13.70;99.90;;;;;;4953591;28;20209;-68
2022/07/14 04:12:22;;;;;;;8.35;3.85;;;13.70;99.90;;;;;;4948223;28;20261;-68
2022/07/14 04:14:49;;;;;;;4.83;4.03;;;13.70;99.90;;;;;;4940813;28;20217;-68
2022/07/14 04:17:16;;;;;;;8.63;4.07;;;13.80;99.90;;;;;;4941894;23;20524;-70
2022/07/14 04:19:44;;;;;;;6.50;3.10;;;13.80;99.90;;;;;;4914260;29;20366;-69
2022/07/14 04:22:10;;;;;;;8.37;3.77;;;13.80;99.90;;;;;;4914479;29;20455;-70
2022/07/14 04:24:38;;;;;;;10.17;3.83;;;13.80;99.90;;;;;;4913631;29;20552;-69
2022/07/14 04:27:04;;;;;;;5.50;3.45;;;13.80;99.90;;;;;;4924997;29;20523;-69
2022/07/14 04:29:32;;;;;;;6.80;3.37;;;13.90;99.90;;;;;;4914604;29;20629;-71
2022/07/14 04:31:58;;;;;;;8.67;5.37;;;14.20;99.90;;;;;;4914175;29;20498;-69
2022/07/14 04:34:25;;;;;;;4.40;2.10;;;14.90;99.90;;;;;;4914374;29;20474;-71
2022/07/14 04:36:54;;;;;;;7.20;2.90;;;15.80;99.90;;;;;;4914540;29;20490;-68
2022/07/14 04:39:21;;;;;;;3.70;2.40;;;16.60;99.90;;;;;;4915030;29;20470;-68
2022/07/14 04:41:47;;;;;;;2.13;2.03;;;17.40;99.90;;;;;;4914492;29;20466;-69
2022/07/14 04:44:14;;;;;;;4.03;2.40;;;17.90;99.90;;;;;;4914829;29;20474;-68
2022/07/14 04:46:41;;;;;;;3.03;2.10;;;18.50;99.90;;;;;;4914016;29;20880;-69
2022/07/14 04:52:05;;;;;;;3.03;2.40;;;19.60;99.90;;;;;;4911602;29;20488;-71
2022/07/14 04:54:33;;;;;;;2.60;2.17;;;19.80;99.90;;;;;;4914757;29;20651;-70
2022/07/14 04:57:01;;;;;;;2.87;2.33;;;20.10;99.90;;;;;;4916947;29;20486;-70
2022/07/14 04:59:29;;;;;;;2.40;2.20;;;20.60;99.90;;;;;;4914266;29;20494;-70
2022/07/14 05:01:55;;;;;;;3.07;2.57;;;20.80;99.90;;;;;;4913775;29;21140;-70
2022/07/14 05:04:23;;;;;;;3.15;2.10;;;21.10;99.90;;;;;;4913858;29;20493;-70
2022/07/14 05:06:50;;;;;;;2.50;2.03;;;21.40;99.90;;;;;;4914008;29;20224;-70
2022/07/14 05:09:19;;;;;;;3.53;2.20;;;21.60;99.90;;;;;;4914419;29;20559;-68
2022/07/14 05:11:46;;;;;;;3.17;2.40;;;21.70;99.90;;;;;;4913822;29;20523;-71
2022/07/14 05:14:13;;;;;;;4.43;2.50;;;21.80;99.90;;;;;;4914032;29;20472;-69
2022/07/14 05:16:40;;;;;;;5.95;2.15;;;22.00;99.90;;;;;;4913736;29;21172;-69
2022/07/14 05:19:06;;;;;;;2.42;2.22;;;22.30;99.90;;;;;;4913607;29;20213;-70
2022/07/14 05:21:34;;;;;;;2.50;2.10;;;22.60;99.90;;;;;;4914798;29;20611;-70
2022/07/14 05:24:01;;;;;;;3.60;2.13;;;22.90;99.90;;;;;;4930893;29;20467;-71
2022/07/14 05:26:29;;;;;;;2.40;2.30;;;22.90;99.90;;;;;;4919159;29;21043;-70
2022/07/14 05:28:55;;;;;;;1.90;1.80;;;23.00;99.90;;;;;;4914274;29;20468;-70
2022/07/14 05:31:22;;;;;;;4.10;2.33;;;23.20;99.90;;;;;;4913275;29;20503;-70
2022/07/14 05:33:49;;;;;;;5.25;2.25;;;23.20;99.90;;;;;;4913853;29;20237;-70
2022/07/14 05:36:16;;;;;;;1.80;1.70;;;23.40;99.90;;;;;;4913807;29;20259;-70
2022/07/14 05:38:42;;;;;;;3.00;1.87;;;23.40;99.90;;;;;;4917471;29;20471;-69
2022/07/14 05:41:09;;;;;;;4.10;2.17;;;23.60;99.90;;;;;;4900248;29;20491;-68
2022/07/14 05:43:37;;;;;;;2.97;2.50;;;23.50;99.90;;;;;;4916477;29;20467;-69
2022/07/14 05:46:07;;;;;;;5.93;2.40;;;23.80;99.90;;;;;;4900021;29;20978;-69
2022/07/14 05:48:34;;;;;;;3.43;2.10;;;24.10;99.90;;;;;;4917281;29;20468;-69
2022/07/14 05:51:05;;;;;;;2.45;2.25;;;23.70;99.90;;;;;;4916950;29;20485;-69
2022/07/14 05:53:31;;;;;;;1.80;1.67;;;24.00;99.90;;;;;;4917839;29;20264;-69
2022/07/14 05:55:58;;;;;;;1.80;1.70;;;23.70;99.90;;;;;;4917523;29;20756;-69
2022/07/14 05:58:25;;;;;;;2.83;2.20;;;23.70;99.90;;;;;;4917719;29;20472;-69
2022/07/14 06:00:53;;;;;;;3.57;1.83;;;23.50;99.90;;;;;;4915723;29;20815;-69
2022/07/14 06:03:20;;;;;;;3.60;1.50;;;23.30;99.90;;;;;;4924767;29;20464;-69
2022/07/14 06:05:46;;;;;;;2.97;1.77;;;23.40;99.90;;;;;;4916716;29;20980;-69
2022/07/14 06:08:13;;;;;;;2.83;1.70;;;23.70;99.90;;;;;;4916887;29;20466;-70
2022/07/14 06:10:40;;;;;;;4.73;2.27;;;24.10;99.90;;;;;;4917005;29;20650;-69
2022/07/14 06:13:07;;;;;;;2.43;2.20;;;24.30;99.90;;;;;;4916914;29;20616;-69
2022/07/14 06:15:33;;;;;;;2.57;1.77;;;24.00;99.90;;;;;;4913253;29;20836;-69
2022/07/14 06:18:02;;;;;;;4.93;2.37;;;23.30;99.90;;;;;;4915828;29;20470;-69
2022/07/14 06:20:29;;;;;;;3.87;1.60;;;23.30;99.90;;;;;;4916892;29;20923;-69
2022/07/14 06:22:55;;;;;;;6.55;2.10;;;23.70;99.90;;;;;;4928248;29;20530;-69
2022/07/14 06:25:22;;;;;;;1.53;1.43;;;24.30;99.90;;;;;;4916695;29;20220;-69
2022/07/14 06:27:49;;;;;;;2.90;1.20;;;24.70;99.90;;;;;;4917068;29;20497;-68
2022/07/14 06:30:16;;;;;;;1.60;1.50;;;24.90;99.90;;;;;;4916556;29;20215;-69
2022/07/14 06:32:43;;;;;;;1.50;1.40;;;25.00;99.90;;;;;;4914045;29;20580;-69
2022/07/14 06:35:11;;;;;;;1.42;1.33;;;25.40;99.90;;;;;;4916399;29;20469;-69
2022/07/14 06:37:38;;;;;;;2.00;1.63;;;26.00;99.90;;;;;;4903204;29;20237;-70
2022/07/14 06:40:07;;;;;;;1.30;1.17;;;25.90;99.90;;;;;;4912290;29;20474;-69
2022/07/14 06:42:34;;;;;;;0.90;0.90;;;26.10;99.90;;;;;;4916378;29;20530;-69
2022/07/14 06:45:01;;;;;;;0.97;0.80;;;25.80;99.80;;;;;;4916300;29;20484;-69
2022/07/14 06:47:30;;;;;;;1.87;1.20;;;25.60;99.10;;;;;;4915546;29;20489;-70
2022/07/14 06:49:57;;;;;;;1.50;1.00;;;25.60;98.60;;;;;;4914796;29;21025;-69
2022/07/14 06:52:25;;;;;;;1.83;1.17;;;25.90;98.60;;;;;;4914703;29;20500;-70
2022/07/14 06:54:52;;;;;;;1.25;1.13;;;25.90;98.70;;;;;;4905906;29;20482;-69
2022/07/14 06:57:19;;;;;;;2.25;1.05;;;26.10;98.00;;;;;;4910756;29;20227;-70
2022/07/14 06:59:45;;;;;;;3.95;1.58;;;26.00;97.10;;;;;;4916347;29;20463;-69
2022/07/14 07:02:12;;;;;;;2.30;1.00;;;26.10;97.60;;;;;;4922663;29;20664;-69
2022/07/14 07:04:39;;;;;;;2.90;0.90;;;26.40;97.50;;;;;;4921373;29;20469;-72
2022/07/14 07:07:05;;;;;;;0.80;0.80;;;26.70;95.90;;;;;;4926933;29;20487;-69
2022/07/14 07:09:33;;;;;;;0.80;0.80;;;25.70;95.50;;;;;;4914464;29;20467;-70
2022/07/14 07:11:59;;;;;;;1.63;1.20;;;25.10;96.90;;;;;;4922988;29;20256;-69
2022/07/14 07:14:26;;;;;;;1.13;0.80;;;25.70;97.70;;;;;;4917174;29;20484;-68
2022/07/14 07:16:53;;;;;;;1.00;1.00;;;26.30;96.30;;;;;;4919664;29;20513;-69
2022/07/14 07:19:20;;;;;;;1.47;1.10;;;26.00;95.20;;;;;;4934855;29;20483;-69
2022/07/14 07:21:47;;;;;;;1.77;1.07;;;25.00;95.90;;;;;;4918156;29;20933;-70
2022/07/14 07:24:14;;;;;;;3.70;1.10;;;24.30;97.10;;;;;;4904851;29;20557;-69
2022/07/14 07:26:43;;;;;;;1.83;0.97;;;24.70;97.70;;;;;;4916494;29;20502;-69
2022/07/14 07:29:10;;;;;;;3.20;0.93;;;25.50;97.50;;;;;;4901593;29;20475;-70
2022/07/14 07:31:37;;;;;;;1.07;0.97;;;25.60;94.60;;;;;;4919413;29;20472;-70
2022/07/14 07:34:04;;;;;;;1.80;1.00;;;24.70;95.30;;;;;;4920123;29;20501;-69
2022/07/14 07:36:31;;;;;;;1.43;0.90;;;23.70;96.50;;;;;;4927313;29;20505;-69
2022/07/14 07:38:58;;;;;;;1.80;0.70;;;22.70;98.10;;;;;;4914938;29;20546;-68
2022/07/14 07:41:25;;;;;;;1.13;0.80;;;23.30;98.90;;;;;;4923763;29;20940;-69
2022/07/14 07:43:53;;;;;;;2.60;1.20;;;24.30;98.00;;;;;;4931822;29;20468;-69
2022/07/14 07:46:20;;;;;;;1.23;1.13;;;25.10;96.80;;;;;;4915187;29;20509;-70
2022/07/14 07:48:46;;;;;;;0.47;0.47;;;25.90;96.10;;;;;;4914989;29;20471;-70
2022/07/14 07:51:13;;;;;;;4.23;0.87;;;26.10;93.50;;;;;;4915443;29;20953;-69
2022/07/14 07:53:41;;;;;;;2.85;0.88;;;25.00;93.70;;;;;;4912277;29;20494;-71
2022/07/14 07:56:08;;;;;;;1.07;0.70;;;23.80;94.90;;;;;;4920823;29;20232;-70
2022/07/14 07:58:35;;;;;;;0.80;0.60;;;22.90;96.30;;;;;;4931317;29;20481;-69
2022/07/14 08:01:04;;;;;;;0.93;0.70;;;23.30;96.60;;;;;;4933790;29;20519;-71
2022/07/14 08:03:31;;;;;;;3.70;1.07;;;23.60;97.00;;;;;;4919238;29;20470;-70
2022/07/14 08:05:57;;;;;;;0.90;0.70;;;24.50;96.10;;;;;;4915344;29;20511;-69
2022/07/14 08:08:24;;;;;;;1.70;0.90;;;24.70;95.10;;;;;;4915023;29;20471;-70
2022/07/14 08:10:51;;;;;;;0.93;0.90;;;24.70;94.60;;;;;;4914734;29;20482;-69
2022/07/14 08:13:18;;;;;;;2.17;0.57;;;24.70;95.40;;;;;;4914846;29;20517;-69
2022/07/14 08:15:44;;;;;;;1.33;0.87;;;25.30;94.40;;;;;;4914484;29;20217;-70
2022/07/14 08:18:12;;;;;;;0.50;0.50;;;24.90;93.80;;;;;;4915032;29;20920;-69
2022/07/14 08:20:39;;;;;;;1.67;0.60;;;24.60;93.40;;;;;;4902087;29;20472;-70
2022/07/14 08:23:06;;;;;;;0.98;0.77;;;24.60;93.90;;;;;;4915091;29;20470;-69
2022/07/14 08:25:33;;;;;;;1.00;0.83;;;24.90;93.80;;;;;;4914733;29;20211;-69
2022/07/14 08:28:00;;;;;;;0.55;0.45;;;25.10;92.80;;;;;;4914906;29;20816;-69
2022/07/14 08:30:27;;;;;;;1.10;0.60;;;25.20;92.20;;;;;;4921496;29;20285;-69
2022/07/14 08:32:54;;;;;;;1.40;0.50;;;24.80;92.80;;;;;;4911521;29;20569;-70
2022/07/14 08:35:24;;;;;;;0.68;0.68;;;24.10;94.20;;;;;;4933530;29;21076;-69
2022/07/14 08:37:51;;;;;;;1.43;0.73;;;23.30;94.60;;;;;;4919278;29;20728;-69
2022/07/14 08:40:20;;;;;;;1.20;0.70;;;23.20;96.00;;;;;;4917823;29;20499;-69
2022/07/14 08:42:49;;;;;;;2.03;0.93;;;23.00;95.30;;;;;;4921280;29;20498;-71
2022/07/14 08:45:18;;;;;;;1.10;1.10;;;22.40;95.60;;;;;;4918072;29;20558;-69
2022/07/14 08:47:45;;;;;;;2.00;0.70;;;22.30;97.30;;;;;;4898526;29;20495;-68
2022/07/14 08:50:14;;;;;;;0.97;0.97;;;22.80;96.80;;;;;;4917694;29;20478;-68
2022/07/14 08:52:43;;;;;;;0.63;0.63;;;23.70;95.40;;;;;;4933146;29;20492;-68
2022/07/14 08:55:12;;;;;;;2.00;1.00;;;24.10;95.10;;;;;;4918970;29;20474;-68
2022/07/14 08:57:40;;;;;;;3.28;1.00;;;23.90;94.90;;;;;;4914186;29;20260;-69
2022/07/14 09:00:11;;;;;;;1.33;0.90;;;23.50;95.20;;;;;;4913837;29;20209;-68
2022/07/14 09:02:38;;;;;;;0.60;0.60;;;23.10;96.30;;;;;;4918999;29;20274;-69
2022/07/14 09:05:06;;;;;;;1.23;1.10;;;23.00;96.50;;;;;;4918525;29;20583;-69
2022/07/14 09:07:34;;;;;;;1.10;1.00;;;22.80;96.20;;;;;;4921246;29;20513;-69
2022/07/14 09:10:05;;;;;;;1.53;0.83;;;22.80;96.10;;;;;;4918194;29;20474;-69
2022/07/14 09:12:32;;;;;;;0.77;0.60;;;22.80;95.50;;;;;;4911456;29;20482;-68
2022/07/14 09:17:54;;;;;;;0.70;0.70;;;23.10;94.90;;;;;;4909036;29;20637;-68
2022/07/14 09:20:22;;;;;;;0.57;0.50;;;23.40;95.20;;;;;;4909517;29;20470;-69
2022/07/14 09:22:55;;;;;;;2.43;0.53;;;23.20;95.10;;;;;;4922186;29;20469;-69
2022/07/14 09:25:25;;;;;;;2.05;1.00;;;22.70;95.00;;;;;;4914578;29;20537;-69
2022/07/14 09:27:52;;;;;;;0.85;0.55;;;22.30;96.20;;;;;;4919298;29;20232;-69
2022/07/14 09:30:19;;;;;;;0.87;0.87;;;22.10;96.90;;;;;;4923673;29;20216;-69
2022/07/14 09:32:48;;;;;;;1.63;0.70;;;22.30;97.20;;;;;;4921894;29;20471;-68
2022/07/14 09:35:17;;;;;;;2.80;0.70;;;22.50;97.20;;;;;;4920435;29;20473;-69
2022/07/14 09:37:44;;;;;;;0.90;0.83;;;22.60;96.40;;;;;;4909993;29;20545;-69
2022/07/14 09:40:15;;;;;;;0.50;0.50;;;22.80;96.20;;;;;;4916817;29;20845;-69
2022/07/14 09:42:52;;;;;;;0.80;0.80;;;22.90;94.60;;;;;;4910201;29;20475;-68
2022/07/14 09:45:22;;;;;;;0.98;0.95;;;23.10;95.50;;;;;;4920609;29;20467;-69
2022/07/14 09:47:58;;;;;;;0.55;0.50;;;23.10;95.10;;;;;;4918449;29;20303;-70
2022/07/14 09:50:39;;;;;;;0.50;0.50;;;23.10;94.20;;;;;;4917365;29;20272;-69
2022/07/14 09:53:16;;;;;;;1.10;0.60;;;23.10;95.40;;;;;;4913883;29;20490;-69
2022/07/14 09:55:46;;;;;;;1.48;0.80;;;23.10;95.30;;;;;;4914686;29;20453;-70
2022/07/14 09:58:14;;;;;;;0.60;0.60;;;23.10;95.50;;;;;;4930471;29;20210;-68
2022/07/14 10:00:42;;;;;;;1.43;0.50;;;23.10;94.50;;;;;;4913421;29;20462;-69
2022/07/14 10:03:09;;;;;;;1.48;0.60;;;23.00;93.50;;;;;;4913863;29;20477;-67
2022/07/14 10:05:38;;;;;;;1.37;0.57;;;23.10;93.20;;;;;;4913465;29;20244;-70
2022/07/14 10:08:06;;;;;;;1.40;0.75;;;23.40;93.20;;;;;;4913935;29;20475;-69
2022/07/14 10:10:35;;;;;;;1.03;0.70;;;23.40;93.50;;;;;;4912712;29;20210;-70
2022/07/14 10:13:04;;;;;;;0.55;0.40;;;23.60;93.50;;;;;;4913441;29;20484;-69
2022/07/14 10:15:32;;;;;;;2.40;0.77;;;23.40;93.90;;;;;;4912787;29;20663;-69
2022/07/14 10:18:02;;;;;;;1.45;0.80;;;23.40;94.60;;;;;;4939361;23;20515;-69
2022/07/14 10:20:30;;;;;;;0.60;0.60;;;23.20;93.70;;;;;;4943336;28;20244;-70
2022/07/14 10:22:58;;;;;;;0.80;0.80;;;23.20;93.40;;;;;;4951237;28;20460;-70
2022/07/14 10:25:25;;;;;;;1.10;0.60;;;23.30;93.60;;;;;;4954151;28;20480;-70
2022/07/14 10:27:53;;;;;;;1.33;0.70;;;23.50;93.00;;;;;;4948064;28;20594;-69
2022/07/14 10:30:29;;;;;;;0.40;0.40;;;23.60;93.40;;;;;;4934687;29;20493;-70
2022/07/14 10:33:05;;;;;;;0.73;0.55;;;23.50;93.80;;;;;;4943893;29;20956;-70
2022/07/14 10:35:53;;;;;;;0.97;0.87;;;23.20;93.60;;;;;;4933764;29;20294;-71
2022/07/14 10:38:42;;;;;;;0.80;0.80;;;22.90;93.00;;;;;;4940985;29;20998;-70
2022/07/14 10:41:25;;;;;;;1.73;0.80;;;23.00;93.40;;;;;;4941023;28;20471;-68
2022/07/14 10:44:05;;;;;;;3.33;0.50;;;23.00;93.40;;;;;;4941518;28;20504;-69
2022/07/14 10:46:39;;;;;;;2.20;0.87;;;23.10;93.50;;;;;;4938525;28;20501;-69
2022/07/14 10:49:09;;;;;;;1.53;0.77;;;23.00;93.80;;;;;;4944483;28;20586;-68
2022/07/14 10:51:44;;;;;;;2.10;0.80;;;22.70;94.60;;;;;;4946548;28;20507;-69
2022/07/14 10:54:12;;;;;;;1.10;0.70;;;22.60;94.70;;;;;;4942841;28;20889;-69
2022/07/14 10:56:40;;;;;;;0.70;0.70;;;22.70;94.90;;;;;;4946485;28;20933;-68
2022/07/14 10:59:32;;;;;;;0.60;0.60;;;22.80;94.70;;;;;;4937900;28;20496;-69
2022/07/14 11:02:28;;;;;;;0.90;0.60;;;22.70;94.00;;;;;;4942717;29;20460;-69
2022/07/14 11:05:14;;;;;;;0.87;0.50;;;22.80;93.70;;;;;;4937083;29;20484;-70
2022/07/14 11:07:44;;;;;;;2.50;0.77;;;22.40;93.50;;;;;;4950531;28;20660;-69
2022/07/14 11:11:09;;;;;;;0.70;0.70;;;22.20;93.70;;;;;;4941951;29;20212;-69
2022/07/14 11:14:00;;;;;;;2.05;0.35;;;22.20;93.80;;;;;;4921243;29;20495;-69
2022/07/14 11:16:57;;;;;;;0.50;0.50;;;22.50;94.00;;;;;;4947157;28;20714;-69
2022/07/14 11:19:30;;;;;;;0.77;0.77;;;22.80;93.80;;;;;;4943815;28;20494;-69
2022/07/14 11:22:18;;;;;;;1.60;0.67;;;22.80;93.40;;;;;;4938259;29;20213;-69
2022/07/14 11:24:51;;;;;;;0.50;0.50;;;22.80;93.30;;;;;;4933873;29;20560;-68
2022/07/14 11:27:39;;;;;;;0.63;0.33;;;22.80;93.70;;;;;;4937511;28;20473;-69
2022/07/14 11:30:28;;;;;;;0.80;0.80;;;22.90;93.80;;;;;;4941333;28;20536;-68
2022/07/14 11:33:00;;;;;;;0.50;0.50;;;23.10;93.80;;;;;;4929346;29;20480;-66
2022/07/14 11:38:34;;;;;;;0.53;0.40;;;23.30;93.50;;;;;;4933449;29;20940;-67
2022/07/14 11:41:03;;;;;;;0.63;0.63;;;23.20;93.70;;;;;;4946168;29;21166;-67
2022/07/14 11:43:40;;;;;;;0.57;0.57;;;23.40;94.50;;;;;;4935354;29;20472;-67
2022/07/14 11:46:09;;;;;;;1.17;1.17;;;23.40;93.70;;;;;;4947612;29;20553;-66
2022/07/14 11:48:38;;;;;;;1.83;0.70;;;23.30;93.40;;;;;;4942752;28;20488;-66
2022/07/14 11:51:06;;;;;;;1.67;0.63;;;23.20;93.90;;;;;;4946219;29;20473;-66
2022/07/14 11:53:35;;;;;;;1.70;1.60;;;23.30;93.30;;;;;;4932309;29;20489;-66
2022/07/14 11:56:03;;;;;;;1.60;0.87;;;23.40;93.10;;;;;;4929359;29;20469;-67
2022/07/14 11:58:31;;;;;;;1.13;0.83;;;23.50;93.30;;;;;;4942325;29;20482;-66
2022/07/14 12:01:00;;;;;;;0.80;0.80;;;23.60;93.60;;;;;;4930435;29;21004;-67
2022/07/14 12:03:28;;;;;;;2.17;0.70;;;23.40;93.20;;;;;;4932848;29;20462;-66
2022/07/14 12:05:56;;;;;;;1.37;0.70;;;23.40;93.80;;;;;;4933376;29;20465;-66
2022/07/14 12:08:24;;;;;;;0.90;0.80;;;23.30;94.20;;;;;;4927512;29;21011;-66
2022/07/14 12:10:53;;;;;;;0.73;0.73;;;23.00;94.30;;;;;;4914955;29;21109;-65
2022/07/14 12:13:20;;;;;;;2.00;0.63;;;23.00;95.10;;;;;;4923758;29;20466;-65
2022/07/14 12:15:48;;;;;;;0.70;0.70;;;22.90;94.60;;;;;;4917726;29;20474;-65
2022/07/14 12:18:15;;;;;;;2.70;1.07;;;22.90;94.80;;;;;;4924423;29;20501;-66
2022/07/14 12:20:44;;;;;;;1.15;0.70;;;23.20;95.30;;;;;;4934425;29;20483;-65
2022/07/14 12:23:12;;;;;;;3.50;0.70;;;23.20;94.40;;;;;;4944582;28;20292;-66
2022/07/14 12:25:42;;;;;;;1.43;1.10;;;23.30;94.10;;;;;;4919970;29;20771;-65
2022/07/14 12:28:12;;;;;;;2.63;0.97;;;23.10;94.10;;;;;;4936640;28;20496;-67
2022/07/14 12:30:44;;;;;;;1.10;0.77;;;23.10;94.30;;;;;;4931646;29;20476;-66
2022/07/14 12:33:12;;;;;;;2.93;0.93;;;22.90;94.10;;;;;;4941795;29;20476;-67
2022/07/14 12:35:40;;;;;;;0.80;0.80;;;22.90;94.60;;;;;;4939202;29;20495;-67
2022/07/14 12:38:08;;;;;;;1.55;0.60;;;22.70;94.40;;;;;;4937170;29;20487;-65
2022/07/14 12:40:35;;;;;;;1.00;1.00;;;22.70;94.40;;;;;;4942907;29;20297;-68
2022/07/14 12:43:03;;;;;;;1.20;1.20;;;22.60;94.60;;;;;;4940389;29;20472;-68
2022/07/14 12:45:31;;;;;;;5.30;1.27;;;22.60;95.10;;;;;;4939320;28;20454;-67
2022/07/14 12:48:01;;;;;;;0.80;0.80;;;22.50;95.40;;;;;;4931963;29;20485;-69
2022/07/14 12:50:29;;;;;;;0.60;0.60;;;22.60;95.70;;;;;;4938890;29;20481;-66
2022/07/14 12:52:57;;;;;;;0.87;0.87;;;22.80;96.00;;;;;;4924196;29;20824;-68
2022/07/14 12:55:36;;;;;;;1.17;1.00;;;22.70;95.60;;;;;;4944795;28;20515;-67
2022/07/14 12:58:04;;;;;;;0.90;0.90;;;22.70;95.90;;;;;;4925480;29;20496;-67
2022/07/14 13:00:34;;;;;;;2.07;0.70;;;22.40;95.50;;;;;;4944429;28;20467;-68
2022/07/14 13:03:12;;;;;;;0.60;0.60;;;22.30;95.60;;;;;;4937430;29;20593;-67
2022/07/14 13:05:43;;;;;;;0.77;0.60;;;22.30;95.40;;;;;;4943944;28;20942;-67
2022/07/14 13:08:33;;;;;;;2.67;0.60;;;22.20;95.60;;;;;;4931570;29;20515;-68
2022/07/14 13:11:02;;;;;;;1.90;0.63;;;22.00;95.70;;;;;;4935653;29;20466;-69
2022/07/14 13:13:30;;;;;;;0.60;0.60;;;22.10;96.00;;;;;;4940723;29;20481;-68
2022/07/14 13:16:17;;;;;;;2.10;0.80;;;22.30;95.80;;;;;;4949393;28;20496;-67
2022/07/14 13:19:04;;;;;;;0.97;0.97;;;22.30;95.20;;;;;;4940533;29;20492;-67
2022/07/14 13:21:51;;;;;;;1.13;0.68;;;22.10;95.50;;;;;;4929763;29;20475;-67
2022/07/14 13:24:21;;;;;;;1.27;0.80;;;22.20;95.60;;;;;;4933980;28;20207;-68
2022/07/14 13:27:05;;;;;;;1.90;0.70;;;22.20;95.30;;;;;;4917481;29;20967;-68
2022/07/14 13:29:33;;;;;;;2.30;0.50;;;22.00;95.70;;;;;;4934763;28;20570;-68
2022/07/14 13:32:01;;;;;;;0.70;0.70;;;22.00;96.40;;;;;;4915367;29;20471;-67
2022/07/14 13:34:28;;;;;;;0.87;0.60;;;22.00;96.00;;;;;;4931466;29;20892;-66
2022/07/14 13:36:57;;;;;;;2.83;1.00;;;22.00;95.10;;;;;;4942525;28;20849;-68
2022/07/14 13:39:25;;;;;;;1.80;0.60;;;22.00;95.50;;;;;;4937782;29;20508;-66
2022/07/14 13:41:51;;;;;;;0.57;0.57;;;22.00;95.50;;;;;;4943742;28;20959;-66
2022/07/14 13:44:18;;;;;;;0.77;0.60;;;22.00;95.80;;;;;;4930629;28;20780;-67
2022/07/14 13:46:46;;;;;;;0.93;0.93;;;21.90;95.60;;;;;;4943661;28;20802;-69
2022/07/14 13:49:14;;;;;;;0.60;0.60;;;21.70;95.20;;;;;;4950297;28;20492;-68
2022/07/14 13:54:26;;;;;;;1.03;0.73;;;21.50;95.90;;;;;;4928523;29;20973;-69
2022/07/14 13:56:53;;;;;;;2.00;0.90;;;21.40;96.20;;;;;;4934184;29;20489;-69
2022/07/14 13:59:20;;;;;;;2.30;0.73;;;21.40;96.80;;;;;;4934864;29;20485;-70
2022/07/14 14:01:47;;;;;;;0.70;0.70;;;21.50;96.80;;;;;;4936544;28;20492;-69
2022/07/14 14:04:15;;;;;;;3.30;0.43;;;21.70;97.00;;;;;;4951392;29;20468;-70
2022/07/14 14:06:43;;;;;;;0.70;0.70;;;21.80;96.70;;;;;;4937114;28;20841;-70
2022/07/14 14:09:11;;;;;;;0.60;0.50;;;22.00;96.60;;;;;;4940033;29;20516;-70
2022/07/14 14:11:38;;;;;;;0.80;0.70;;;22.10;95.50;;;;;;4947219;28;20469;-69
2022/07/14 14:14:05;;;;;;;0.50;0.50;;;22.20;95.50;;;;;;4945449;28;20660;-69
2022/07/14 14:16:32;;;;;;;0.60;0.60;;;22.30;94.90;;;;;;4940274;29;20206;-69
2022/07/14 14:18:59;;;;;;;1.43;0.80;;;22.30;94.90;;;;;;4941363;28;20503;-69
2022/07/14 14:21:28;;;;;;;0.40;0.40;;;22.40;94.20;;;;;;4939316;28;20584;-70
2022/07/14 14:23:55;;;;;;;0.60;0.60;;;22.40;93.90;;;;;;4928025;29;20461;-69
2022/07/14 14:26:22;;;;;;;4.97;0.70;;;22.30;93.70;;;;;;4918976;29;20458;-69
2022/07/14 14:28:49;;;;;;;0.57;0.57;;;21.90;94.60;;;;;;4938372;29;20673;-69
2022/07/14 14:31:15;;;;;;;0.50;0.50;;;21.70;94.90;;;;;;4939204;28;20466;-69
2022/07/14 14:33:42;;;;;;;1.20;0.73;;;21.60;94.90;;;;;;4932550;29;20485;-69
2022/07/14 14:36:09;;;;;;;2.50;0.90;;;21.60;94.60;;;;;;4932651;29;20508;-68
2022/07/14 14:38:38;;;;;;;0.57;0.50;;;21.70;94.70;;;;;;4943649;29;20486;-69
2022/07/14 14:41:04;;;;;;;0.80;0.40;;;21.70;95.20;;;;;;4931338;29;20561;-69
2022/07/14 14:43:31;;;;;;;1.13;0.73;;;21.70;95.50;;;;;;4926197;29;20461;-69
2022/07/14 14:45:58;;;;;;;0.77;0.77;;;21.70;95.50;;;;;;4934128;29;21025;-69
2022/07/14 14:48:24;;;;;;;1.13;0.50;;;21.60;94.70;;;;;;4946927;28;20485;-69
2022/07/14 14:50:51;;;;;;;1.85;0.45;;;21.40;95.20;;;;;;4945004;28;20596;-70
2022/07/14 14:53:18;;;;;;;1.03;0.60;;;21.30;95.50;;;;;;4946767;28;20210;-69
2022/07/14 14:55:46;;;;;;;0.40;0.40;;;21.30;96.00;;;;;;4924999;28;20489;-69
2022/07/14 14:58:13;;;;;;;0.50;0.50;;;21.20;96.30;;;;;;4943619;29;20490;-70
2022/07/14 15:00:40;;;;;;;0.97;0.60;;;21.20;96.40;;;;;;4931504;29;20472;-69
2022/07/14 15:03:06;;;;;;;0.50;0.50;;;21.10;96.90;;;;;;4946490;28;20481;-69
2022/07/14 15:05:33;;;;;;;1.77;0.40;;;21.00;97.30;;;;;;4937464;28;20468;-69
2022/07/14 15:08:00;;;;;;;0.70;0.57;;;21.00;97.80;;;;;;4928447;29;20584;-69
2022/07/14 15:10:27;;;;;;;2.00;0.87;;;20.90;97.90;;;;;;4919813;29;20848;-69
2022/07/14 15:12:55;;;;;;;2.47;0.87;;;20.70;98.70;;;;;;4918955;29;20470;-69
2022/07/14 15:15:21;;;;;;;0.80;0.80;;;20.40;99.90;;;;;;4918282;29;20494;-68
2022/07/14 15:17:52;;;;;;;1.13;0.90;;;20.10;99.90;;;;;;4928703;29;20503;-69
2022/07/14 15:20:18;;;;;;;2.20;0.90;;;20.00;99.90;;;;;;4944129;28;20967;-68
2022/07/14 15:22:45;;;;;;;1.80;1.03;;;19.90;99.90;;;;;;4931728;29;20473;-69
2022/07/14 15:25:12;;;;;;;1.07;1.00;;;19.90;99.90;;;;;;4932039;29;20824;-69
2022/07/14 15:27:39;;;;;;;1.60;1.00;;;19.90;99.90;;;;;;4926365;29;20988;-68
2022/07/14 15:30:09;;;;;;;0.67;0.67;;;19.80;99.90;;;;;;4941710;28;20461;-69
2022/07/14 15:32:36;;;;;;;0.70;0.70;;;19.80;99.90;;;;;;4924208;29;20470;-69
2022/07/14 15:35:04;;;;;;;0.70;0.70;;;19.80;99.90;;;;;;4940782;28;20500;-68
2022/07/14 15:37:30;;;;;;;0.67;0.67;;;19.80;99.90;;;;;;4932685;29;20995;-69
2022/07/14 15:42:41;;;;;;;2.23;0.80;;;19.80;99.90;;;;;;4939474;29;20539;-70
2022/07/14 15:45:14;;;;;;;0.80;0.80;;;19.80;99.90;;;;;;4933240;28;20804;-69
2022/07/14 15:47:41;;;;;;;2.33;1.53;;;19.80;99.90;;;;;;4945028;29;20471;-69
2022/07/14 15:50:08;;;;;;;3.23;1.20;;;19.60;99.90;;;;;;4942719;28;20462;-70
2022/07/14 15:52:36;;;;;;;0.73;0.73;;;19.60;99.90;;;;;;4933673;29;20555;-69
2022/07/14 15:55:08;;;;;;;2.00;0.90;;;19.60;99.90;;;;;;4938787;29;20489;-70
2022/07/14 15:57:35;;;;;;;1.60;0.90;;;19.70;99.90;;;;;;4934316;29;20465;-69
2022/07/14 16:00:03;;;;;;;0.80;0.80;;;20.00;99.90;;;;;;4939106;29;20465;-69
2022/07/14 16:02:31;;;;;;;1.10;1.10;;;20.20;99.90;;;;;;4936867;29;20470;-69
2022/07/14 16:04:58;;;;;;;1.70;0.77;;;20.20;99.90;;;;;;4932299;28;20556;-69
2022/07/14 16:07:24;;;;;;;0.73;0.73;;;20.20;99.90;;;;;;4931729;29;20473;-70
2022/07/14 16:09:51;;;;;;;1.90;1.37;;;20.10;99.90;;;;;;4930855;29;20492;-69
2022/07/14 16:12:18;;;;;;;1.50;1.40;;;19.90;99.90;;;;;;4936406;29;21063;-67
2022/07/14 16:14:45;;;;;;;1.33;0.97;;;19.90;99.90;;;;;;4927912;29;20869;-70
2022/07/14 16:17:11;;;;;;;2.00;0.97;;;19.90;99.90;;;;;;4922635;29;20474;-70
2022/07/14 16:19:40;;;;;;;0.93;0.80;;;19.80;99.90;;;;;;4951213;23;20824;-70
2022/07/14 16:22:06;;;;;;;0.93;0.73;;;19.70;99.90;;;;;;4969053;28;20494;-70
2022/07/14 16:24:33;;;;;;;1.03;0.90;;;19.50;99.90;;;;;;4972249;28;20467;-70
2022/07/14 16:27:00;;;;;;;1.00;1.00;;;19.50;99.90;;;;;;4971839;28;20464;-70
2022/07/14 16:29:26;;;;;;;1.27;1.20;;;19.40;99.90;;;;;;4968341;28;20487;-70
2022/07/14 16:31:53;;;;;;;1.00;1.00;;;19.30;99.90;;;;;;4949809;29;20941;-71
2022/07/14 16:34:20;;;;;;;1.95;1.27;;;19.30;99.90;;;;;;4952633;29;20519;-70
2022/07/14 16:36:48;;;;;;;1.33;1.20;;;19.40;99.90;;;;;;4952190;29;20240;-70
2022/07/14 16:39:15;;;;;;;1.00;1.00;;;19.30;99.90;;;;;;4951014;28;20578;-70
2022/07/14 16:41:42;;;;;;;1.03;0.80;;;19.30;99.90;;;;;;4949291;29;20508;-70
2022/07/14 16:44:09;;;;;;;1.80;1.00;;;19.40;99.90;;;;;;4947109;28;20555;-71
2022/07/14 16:46:36;;;;;;;1.13;0.82;;;19.50;99.90;;;;;;4952798;29;20468;-70
2022/07/14 16:49:03;;;;;;;1.27;1.10;;;19.50;99.90;;;;;;4951281;28;20700;-70
2022/07/14 16:51:30;;;;;;;2.67;1.20;;;19.50;99.90;;;;;;4951646;29;20491;-70
2022/07/14 16:53:58;;;;;;;0.70;0.70;;;19.70;99.90;;;;;;4951294;29;20212;-69
2022/07/14 16:56:25;;;;;;;1.00;1.00;;;19.70;99.90;;;;;;4950389;29;20492;-69
2022/07/14 16:58:51;;;;;;;0.93;0.83;;;19.70;99.90;;;;;;4950653;29;20465;-70
2022/07/14 17:01:18;;;;;;;0.93;0.93;;;19.80;99.90;;;;;;4949721;28;20590;-69
2022/07/14 17:03:45;;;;;;;2.10;1.10;;;19.80;99.90;;;;;;4950433;28;20851;-70
2022/07/14 17:06:22;;;;;;;1.10;1.00;;;20.10;99.90;;;;;;4951085;29;20568;-70
2022/07/14 17:08:50;;;;;;;1.17;1.17;;;20.40;99.90;;;;;;4951698;29;20468;-69
2022/07/14 17:11:19;;;;;;;1.13;1.13;;;20.50;99.90;;;;;;4951027;28;20494;-69
2022/07/14 17:13:46;;;;;;;1.80;0.90;;;20.60;99.90;;;;;;4950724;29;20579;-69